createdAt,value
2019-05-02T00:00:13.744Z,90.64
2019-05-02T00:02:45.058Z,91.44
2019-05-02T00:05:18.307Z,91.71
2019-05-02T00:07:49.128Z,91.93
2019-05-02T00:10:24.868Z,91.74
2019-05-02T00:12:57.451Z,91.22
2019-05-02T00:15:28.260Z,91.79
2019-05-02T00:18:01.393Z,92.80
2019-05-02T00:20:37.896Z,92.88
2019-05-02T00:23:08.791Z,92.45
2019-05-02T00:25:40.676Z,92.15
2019-05-02T00:28:13.990Z,91.98
2019-05-02T00:30:50.011Z,91.64
2019-05-02T00:33:22.643Z,91.87
2019-05-02T00:35:54.736Z,93.21
2019-05-02T00:38:25.379Z,93.42
2019-05-02T00:41:01.772Z,93.03
2019-05-02T00:43:37.021Z,92.95
2019-05-02T00:46:11.234Z,93.18
2019-05-02T00:48:54.040Z,94.27
2019-05-02T00:51:26.709Z,94.54
2019-05-02T00:53:58.382Z,94.92
2019-05-02T00:56:28.981Z,94.10
2019-05-02T00:59:02.413Z,93.33
2019-05-02T01:01:51.577Z,93.66
2019-05-02T01:04:35.319Z,93.46
2019-05-02T01:07:07.750Z,93.84
2019-05-02T01:09:42.316Z,94.81
2019-05-02T01:12:25.176Z,94.66
2019-05-02T01:14:45.669Z,93.96
2019-05-02T01:17:16.467Z,94.04
2019-05-02T01:19:53.300Z,94.00
2019-05-02T01:22:24.089Z,94.05
2019-05-02T01:24:55.937Z,93.73
2019-05-02T01:27:35.943Z,94.09
2019-05-02T01:30:28.485Z,94.11
2019-05-02T01:33:18.215Z,93.76
2019-05-02T01:36:24.327Z,93.36
2019-05-02T01:38:55.410Z,94.53
2019-05-02T01:41:29.360Z,95.11
2019-05-02T01:44:01.504Z,95.87
2019-05-02T01:46:32.367Z,96.22
2019-05-02T01:49:05.556Z,95.42
2019-05-02T01:51:47.781Z,95.19
2019-05-02T01:54:17.843Z,95.95
2019-05-02T01:56:49.681Z,95.91
2019-05-02T01:59:21.717Z,95.62
2019-05-02T02:01:58.024Z,95.30
2019-05-02T02:04:28.123Z,95.25
2019-05-02T02:07:00.056Z,96.18
2019-05-02T02:09:30.737Z,95.78
2019-05-02T02:12:04.896Z,95.86
2019-05-02T02:14:34.255Z,96.17
2019-05-02T02:17:04.957Z,96.49
2019-05-02T02:19:48.024Z,96.11
2019-05-02T02:22:39.150Z,96.41
2019-05-02T02:25:48.204Z,96.33
2019-05-02T02:28:18.765Z,96.25
2019-05-02T02:30:49.560Z,95.93
2019-05-02T02:33:24.377Z,95.74
2019-05-02T02:35:55.442Z,96.16
2019-05-02T02:38:32.894Z,96.56
2019-05-02T02:41:13.224Z,96.48
2019-05-02T02:43:39.937Z,96.63
2019-05-02T02:46:37.879Z,96.82
2019-05-02T02:49:14.229Z,96.71
2019-05-02T02:51:41.745Z,96.82
2019-05-02T02:54:13.646Z,96.83
2019-05-02T02:56:44.475Z,97.04
2019-05-02T02:59:19.378Z,97.86
2019-05-02T03:01:51.229Z,98.12
2019-05-02T03:04:23.138Z,97.75
2019-05-02T03:06:54.809Z,97.16
2019-05-02T03:09:28.942Z,96.65
2019-05-02T03:12:18.173Z,97.06
2019-05-02T03:14:53.749Z,97.58
2019-05-02T03:17:28.696Z,97.06
2019-05-02T03:20:01.826Z,97.51
2019-05-02T03:22:35.009Z,97.29
2019-05-02T03:25:06.780Z,97.31
2019-05-02T03:27:40.503Z,97.48
2019-05-02T03:30:29.230Z,97.11
2019-05-02T03:33:03.606Z,96.79
2019-05-02T03:35:40.198Z,97.44
2019-05-02T03:37:59.182Z,97.17
2019-05-02T03:40:38.934Z,97.00
2019-05-02T03:43:11.545Z,97.33
2019-05-02T03:45:43.297Z,98.03
2019-05-02T03:48:18.320Z,98.22
2019-05-02T03:50:49.783Z,98.60
2019-05-02T03:53:25.957Z,98.29
2019-05-02T03:56:10.835Z,98.81
2019-05-02T03:58:32.699Z,99.05
2019-05-02T04:01:04.006Z,98.73
2019-05-02T04:03:41.161Z,98.31
2019-05-02T04:06:14.049Z,98.13
2019-05-02T04:08:45.537Z,98.71
2019-05-02T04:11:37.961Z,98.88
2019-05-02T04:13:59.657Z,98.62
2019-05-02T04:16:32.590Z,99.37
2019-05-02T04:19:07.523Z,99.47
2019-05-02T04:21:39.707Z,99.23
2019-05-02T04:24:15.673Z,98.63
2019-05-02T04:26:53.529Z,98.39
2019-05-02T04:29:24.513Z,99.12
2019-05-02T04:31:51.888Z,99.42
2019-05-02T04:34:23.774Z,99.03
2019-05-02T04:37:01.554Z,99.26
2019-05-02T04:39:28.637Z,99.41
2019-05-02T04:42:05.503Z,99.09
2019-05-02T04:44:40.875Z,99.08
2019-05-02T04:47:17.104Z,98.83
2019-05-02T04:49:41.329Z,98.64
2019-05-02T04:52:16.607Z,99.17
2019-05-02T04:54:48.794Z,99.65
2019-05-02T04:57:19.335Z,99.32
2019-05-02T05:00:05.004Z,98.95
2019-05-02T05:02:34.175Z,98.64
2019-05-02T05:04:58.112Z,98.31
2019-05-02T05:07:31.049Z,98.82
2019-05-02T05:10:03.357Z,99.56
2019-05-02T05:12:38.049Z,99.88
2019-05-02T05:15:13.380Z,99.58
2019-05-02T05:17:42.431Z,99.31
2019-05-02T05:20:15.786Z,99.24
2019-05-02T05:22:48.001Z,99.39
2019-05-02T05:25:28.682Z,99.14
2019-05-02T05:28:05.655Z,98.79
2019-05-02T05:30:31.999Z,98.89
2019-05-02T05:33:03.648Z,99.00
2019-05-02T05:35:38.409Z,98.86
2019-05-02T05:38:08.752Z,98.89
2019-05-02T05:40:39.387Z,98.66
2019-05-02T05:43:14.389Z,98.30
2019-05-02T05:45:56.401Z,98.04
2019-05-02T05:48:32.153Z,98.07
2019-05-02T05:51:04.225Z,98.29
2019-05-02T05:53:34.845Z,98.39
2019-05-02T05:56:07.782Z,98.45
2019-05-02T05:58:39.799Z,98.22
2019-05-02T06:01:10.782Z,98.11
2019-05-02T06:03:44.976Z,97.72
2019-05-02T06:06:22.774Z,97.12
2019-05-02T06:08:54.147Z,96.57
2019-05-02T06:11:22.696Z,96.92
2019-05-02T06:13:54.663Z,97.00
2019-05-02T06:16:25.415Z,97.23
2019-05-02T06:18:56.225Z,97.20
2019-05-02T06:21:32.098Z,97.28
2019-05-02T06:24:03.028Z,97.15
2019-05-02T06:26:33.664Z,97.39
2019-05-02T06:29:07.686Z,97.58
2019-05-02T06:31:42.980Z,97.40
2019-05-02T06:34:14.665Z,96.97
2019-05-02T06:36:44.409Z,96.97
2019-05-02T06:39:15.462Z,96.93
2019-05-02T06:41:46.399Z,96.57
2019-05-02T06:44:23.214Z,96.75
2019-05-02T06:46:50.627Z,96.82
2019-05-02T06:49:27.484Z,96.74
2019-05-02T06:51:58.202Z,96.34
2019-05-02T06:54:30.342Z,96.08
2019-05-02T06:57:03.053Z,95.86
2019-05-02T06:59:39.853Z,95.87
2019-05-02T07:02:10.619Z,95.97
2019-05-02T07:04:41.397Z,96.10
2019-05-02T07:07:15.904Z,96.15
2019-05-02T07:09:46.987Z,96.43
2019-05-02T07:12:17.880Z,96.55
2019-05-02T07:14:48.788Z,96.40
2019-05-02T07:17:39.937Z,96.33
2019-05-02T07:20:12.242Z,96.22
2019-05-02T07:22:45.439Z,96.12
2019-05-02T07:25:18.568Z,96.19
2019-05-02T07:27:49.463Z,95.92
2019-05-02T07:30:20.754Z,95.79
2019-05-02T07:32:51.335Z,95.73
2019-05-02T07:35:24.397Z,95.51
2019-05-02T07:37:56.994Z,95.44
2019-05-02T07:40:28.947Z,95.48
2019-05-02T07:43:00.838Z,95.81
2019-05-02T07:45:32.485Z,95.16
2019-05-02T07:48:04.474Z,94.28
2019-05-02T07:50:35.150Z,93.62
2019-05-02T07:53:09.587Z,92.96
2019-05-02T07:55:40.588Z,92.73
2019-05-02T07:58:20.804Z,92.07
2019-05-02T08:00:51.601Z,91.93
2019-05-02T08:03:23.473Z,91.72
2019-05-02T08:05:58.558Z,91.22
2019-05-02T08:08:31.888Z,90.69
2019-05-02T08:11:03.905Z,90.60
2019-05-02T08:13:34.703Z,90.34
2019-05-02T08:16:05.540Z,89.43
2019-05-02T08:18:36.159Z,89.02
2019-05-02T08:21:08.114Z,88.55
2019-05-02T08:23:38.666Z,87.33
2019-05-02T08:26:09.693Z,86.91
2019-05-02T08:28:53.286Z,86.46
2019-05-02T08:31:25.004Z,85.95
2019-05-02T08:33:56.910Z,86.08
2019-05-02T08:36:27.705Z,85.44
2019-05-02T08:38:58.427Z,85.29
2019-05-02T08:41:30.399Z,84.01
2019-05-02T08:44:01.104Z,82.91
2019-05-02T08:46:31.853Z,81.18
2019-05-02T08:49:02.538Z,81.49
2019-05-02T08:51:33.424Z,81.57
2019-05-02T08:54:04.177Z,79.71
2019-05-02T08:56:35.048Z,79.41
2019-05-02T08:59:05.901Z,77.97
2019-05-02T09:01:37.953Z,75.25
2019-05-02T09:04:09.778Z,73.10
2019-05-02T09:06:47.658Z,69.82
2019-05-02T09:09:22.809Z,69.63
2019-05-02T09:12:04.826Z,71.72
2019-05-02T09:14:27.540Z,71.66
2019-05-02T09:17:06.063Z,70.97
2019-05-02T09:19:34.997Z,70.66
2019-05-02T09:22:07.491Z,69.99
2019-05-02T09:24:38.259Z,69.86
2019-05-02T09:27:12.091Z,70.06
2019-05-02T09:29:45.888Z,68.67
2019-05-02T09:32:17.059Z,68.47
2019-05-02T09:34:51.707Z,67.55
2019-05-02T09:37:28.357Z,67.39
2019-05-02T09:40:02.234Z,66.26
2019-05-02T09:42:36.008Z,67.77
2019-05-02T09:45:22.719Z,67.92
2019-05-02T09:48:01.579Z,67.54
2019-05-02T09:50:42.267Z,67.93
2019-05-02T09:53:20.878Z,65.90
2019-05-02T09:55:50.283Z,64.21
2019-05-02T09:58:21.395Z,66.38
2019-05-02T10:01:11.913Z,65.35
2019-05-02T10:03:42.983Z,65.32
2019-05-02T10:06:36.500Z,65.61
2019-05-02T10:08:49.274Z,66.85
2019-05-02T10:11:22.471Z,63.82
2019-05-02T10:13:55.483Z,64.48
2019-05-02T10:16:28.473Z,65.13
2019-05-02T10:19:08.911Z,63.92
2019-05-02T10:21:32.756Z,63.50
2019-05-02T10:24:04.263Z,63.25
2019-05-02T10:26:37.939Z,62.91
2019-05-02T10:29:08.771Z,62.71
2019-05-02T10:31:45.515Z,63.01
2019-05-02T10:34:17.831Z,60.85
2019-05-02T10:36:54.283Z,61.50
2019-05-02T10:39:23.410Z,61.06
2019-05-02T10:41:57.447Z,60.65
2019-05-02T10:44:32.597Z,59.72
2019-05-02T10:47:02.904Z,59.73
2019-05-02T10:49:40.124Z,60.43
2019-05-02T10:52:12.203Z,60.26
2019-05-02T10:54:44.275Z,59.80
2019-05-02T10:57:16.228Z,60.09
2019-05-02T10:59:56.120Z,61.28
2019-05-02T11:02:45.211Z,61.00
2019-05-02T11:05:22.574Z,58.08
2019-05-02T11:07:52.322Z,58.99
2019-05-02T11:10:28.174Z,58.74
2019-05-02T11:13:23.911Z,59.30
2019-05-02T11:16:23.106Z,58.46
2019-05-02T11:19:13.252Z,58.30
2019-05-02T11:21:55.436Z,58.98
2019-05-02T11:24:17.870Z,57.17
2019-05-02T11:26:48.604Z,57.56
2019-05-02T11:29:19.147Z,57.27
2019-05-02T11:31:53.163Z,56.90
2019-05-02T11:34:24.134Z,56.03
2019-05-02T11:36:55.018Z,54.87
2019-05-02T11:39:33.511Z,55.64
2019-05-02T11:42:02.131Z,56.64
2019-05-02T11:44:47.770Z,53.79
2019-05-02T11:47:26.679Z,55.41
2019-05-02T11:50:06.858Z,56.52
2019-05-02T11:52:39.546Z,55.52
2019-05-02T11:55:12.954Z,53.87
2019-05-02T11:57:52.348Z,53.77
2019-05-02T12:00:27.601Z,54.27
2019-05-02T12:03:16.030Z,53.37
2019-05-02T12:06:02.073Z,52.57
2019-05-02T12:08:45.120Z,52.73
2019-05-02T12:11:22.851Z,53.51
2019-05-02T12:13:57.050Z,52.41
2019-05-02T12:16:37.998Z,50.42
2019-05-02T12:19:17.627Z,46.58
2019-05-02T12:22:07.114Z,45.29
2019-05-02T12:24:46.562Z,44.44
2019-05-02T12:27:26.696Z,43.08
2019-05-02T12:29:59.378Z,41.19
2019-05-02T12:32:30.753Z,42.63
2019-05-02T12:35:02.561Z,41.43
2019-05-02T12:37:34.513Z,41.42
2019-05-02T12:40:08.078Z,41.77
2019-05-02T12:42:41.864Z,42.54
2019-05-02T12:45:22.029Z,44.42
2019-05-02T12:47:55.914Z,45.95
2019-05-02T12:50:32.293Z,45.54
2019-05-02T12:53:12.400Z,47.68
2019-05-02T12:55:50.061Z,47.66
2019-05-02T12:58:21.885Z,48.74
2019-05-02T13:00:58.810Z,49.73
2019-05-02T13:03:58.960Z,49.93
2019-05-02T13:06:37.069Z,50.49
2019-05-02T13:09:13.364Z,49.68
2019-05-02T13:12:07.557Z,49.90
2019-05-02T13:14:44.057Z,49.80
2019-05-02T13:17:16.283Z,50.47
2019-05-02T13:19:55.810Z,51.12
2019-05-02T13:22:47.224Z,52.45
2019-05-02T13:25:32.785Z,50.86
2019-05-02T13:28:03.899Z,51.44
2019-05-02T13:30:51.783Z,52.25
2019-05-02T13:33:35.812Z,52.33
2019-05-02T13:36:06.735Z,51.86
2019-05-02T13:38:43.524Z,50.42
2019-05-02T13:41:15.586Z,51.27
2019-05-02T13:43:48.331Z,50.14
2019-05-02T13:46:22.349Z,50.51
2019-05-02T13:48:53.379Z,51.62
2019-05-02T13:51:25.289Z,52.24
2019-05-02T13:54:02.246Z,52.29
2019-05-02T13:56:52.421Z,51.82
2019-05-02T13:59:23.226Z,51.27
2019-05-02T14:02:02.792Z,50.81
2019-05-02T14:04:34.287Z,49.62
2019-05-02T14:07:07.571Z,50.42
2019-05-02T14:09:44.160Z,51.65
2019-05-02T14:12:42.971Z,52.30
2019-05-02T14:15:15.212Z,51.10
2019-05-02T14:17:47.161Z,50.79
2019-05-02T14:20:22.569Z,51.37
2019-05-02T14:22:53.568Z,50.27
2019-05-02T14:25:24.417Z,49.82
2019-05-02T14:27:55.757Z,50.71
2019-05-02T14:30:37.294Z,51.09
2019-05-02T14:33:13.788Z,51.96
2019-05-02T14:35:46.662Z,52.16
2019-05-02T14:38:17.574Z,52.74
2019-05-02T14:41:14.300Z,49.57
2019-05-02T14:43:55.918Z,49.31
2019-05-02T14:46:35.530Z,49.70
2019-05-02T14:49:02.948Z,50.48
2019-05-02T14:51:37.246Z,51.00
2019-05-02T14:54:08.955Z,51.59
2019-05-02T14:57:02.102Z,51.22
2019-05-02T14:59:34.116Z,51.91
2019-05-02T15:02:09.048Z,52.24
2019-05-02T15:04:46.328Z,51.25
2019-05-02T15:07:13.008Z,51.25
2019-05-02T15:09:43.923Z,51.69
2019-05-02T15:12:18.874Z,50.69
2019-05-02T15:14:49.739Z,52.05
2019-05-02T15:17:22.722Z,50.89
2019-05-02T15:19:54.615Z,50.74
2019-05-02T15:22:31.842Z,52.45
2019-05-02T15:25:02.680Z,52.26
2019-05-02T15:27:41.921Z,51.99
2019-05-02T15:30:12.445Z,53.47
2019-05-02T15:32:58.981Z,52.72
2019-05-02T15:35:42.592Z,51.69
2019-05-02T15:38:20.843Z,49.94
2019-05-02T15:40:50.470Z,47.45
2019-05-02T15:43:19.618Z,46.98
2019-05-02T15:45:52.665Z,47.05
2019-05-02T15:48:27.516Z,46.79
2019-05-02T15:51:05.030Z,45.38
2019-05-02T15:53:48.259Z,44.11
2019-05-02T15:56:20.056Z,44.02
2019-05-02T15:58:52.394Z,44.39
2019-05-02T16:01:52.465Z,45.90
2019-05-02T16:04:29.392Z,42.68
2019-05-02T16:07:06.967Z,42.69
2019-05-02T16:09:33.700Z,41.19
2019-05-02T16:12:06.236Z,40.28
2019-05-02T16:14:37.254Z,40.64
2019-05-02T16:17:09.358Z,41.53
2019-05-02T16:19:45.238Z,40.86
2019-05-02T16:22:19.917Z,40.90
2019-05-02T16:24:51.449Z,41.36
2019-05-02T16:27:44.269Z,41.52
2019-05-02T16:30:22.394Z,41.21
2019-05-02T16:33:02.482Z,41.96
2019-05-02T16:35:34.184Z,42.48
2019-05-02T16:38:09.135Z,42.56
2019-05-02T16:40:41.890Z,42.51
2019-05-02T16:43:19.731Z,42.56
2019-05-02T16:45:52.567Z,43.55
2019-05-02T16:48:25.354Z,42.73
2019-05-02T16:50:56.318Z,43.08
2019-05-02T16:53:27.194Z,42.12
2019-05-02T16:56:05.474Z,42.95
2019-05-02T16:58:37.997Z,42.55
2019-05-02T17:01:06.637Z,42.28
2019-05-02T17:03:37.442Z,43.44
2019-05-02T17:06:08.179Z,44.00
2019-05-02T17:08:58.514Z,42.48
2019-05-02T17:11:37.085Z,42.58
2019-05-02T17:14:13.559Z,43.46
2019-05-02T17:16:52.354Z,43.70
2019-05-02T17:19:31.382Z,44.78
2019-05-02T17:22:02.472Z,45.52
2019-05-02T17:24:32.860Z,46.60
2019-05-02T17:27:07.205Z,46.54
2019-05-02T17:29:44.185Z,46.97
2019-05-02T17:32:16.675Z,47.53
2019-05-02T17:34:47.761Z,48.14
2019-05-02T17:37:24.512Z,48.75
2019-05-02T17:39:56.570Z,49.00
2019-05-02T17:42:27.227Z,49.89
2019-05-02T17:45:01.708Z,50.40
2019-05-02T17:47:35.581Z,51.21
2019-05-02T17:50:15.596Z,51.41
2019-05-02T17:52:45.639Z,51.89
2019-05-02T17:55:18.663Z,52.35
2019-05-02T17:57:51.631Z,52.82
2019-05-02T18:00:30.611Z,53.31
2019-05-02T18:03:02.606Z,53.93
2019-05-02T18:05:35.787Z,54.27
2019-05-02T18:08:10.717Z,54.16
2019-05-02T18:10:41.901Z,54.92
2019-05-02T18:13:12.985Z,56.61
2019-05-02T18:15:46.961Z,57.57
2019-05-02T18:18:18.927Z,59.18
2019-05-02T18:20:52.724Z,59.58
2019-05-02T18:23:27.628Z,61.16
2019-05-02T18:26:04.432Z,61.87
2019-05-02T18:28:31.777Z,62.06
2019-05-02T18:31:05.721Z,62.58
2019-05-02T18:33:40.965Z,64.70
2019-05-02T18:36:09.725Z,65.72
2019-05-02T18:38:41.718Z,66.37
2019-05-02T18:41:14.045Z,67.02
2019-05-02T18:43:45.907Z,67.70
2019-05-02T18:46:19.944Z,68.18
2019-05-02T18:48:51.870Z,68.61
2019-05-02T18:51:23.070Z,68.96
2019-05-02T18:53:57.860Z,68.67
2019-05-02T18:56:35.601Z,68.60
2019-05-02T18:59:06.115Z,68.32
2019-05-02T19:01:38.352Z,68.70
2019-05-02T19:04:13.271Z,67.50
2019-05-02T19:06:48.404Z,68.23
2019-05-02T19:09:30.454Z,67.14
2019-05-02T19:12:05.908Z,67.15
2019-05-02T19:14:43.702Z,67.20
2019-05-02T19:17:26.685Z,67.46
2019-05-02T19:19:58.507Z,67.71
2019-05-02T19:22:32.203Z,68.58
2019-05-02T19:25:04.462Z,68.64
2019-05-02T19:28:04.409Z,69.04
2019-05-02T19:30:51.966Z,69.91
2019-05-02T19:33:25.877Z,70.23
2019-05-02T19:35:56.568Z,70.23
2019-05-02T19:38:27.324Z,70.52
2019-05-02T19:41:18.786Z,71.02
2019-05-02T19:44:02.337Z,70.96
2019-05-02T19:46:38.611Z,71.00
2019-05-02T19:49:16.287Z,71.46
2019-05-02T19:51:56.324Z,71.86
2019-05-02T19:54:33.542Z,71.67
2019-05-02T19:56:59.761Z,71.72
2019-05-02T19:59:32.172Z,71.85
2019-05-02T20:02:11.891Z,72.29
2019-05-02T20:04:58.227Z,72.90
2019-05-02T20:07:35.976Z,73.16
2019-05-02T20:10:07.032Z,73.16
2019-05-02T20:12:40.904Z,73.61
2019-05-02T20:15:17.021Z,74.20
2019-05-02T20:17:55.338Z,74.11
2019-05-02T20:21:23.156Z,74.65
2019-05-02T20:23:55.292Z,74.75
2019-05-02T20:26:35.484Z,75.07
2019-05-02T20:29:12.382Z,75.59
2019-05-02T20:31:45.131Z,75.79
2019-05-02T20:34:17.892Z,76.16
2019-05-02T20:36:51.817Z,76.21
2019-05-02T20:39:27.119Z,76.46
2019-05-02T20:42:19.863Z,76.33
2019-05-02T20:44:52.795Z,76.46
2019-05-02T20:47:27.244Z,77.68
2019-05-02T20:49:59.180Z,77.38
2019-05-02T20:52:29.875Z,77.67
2019-05-02T20:55:05.032Z,77.71
2019-05-02T20:57:59.099Z,77.61
2019-05-02T21:00:48.102Z,77.80
2019-05-02T21:03:19.938Z,77.84
2019-05-02T21:06:37.548Z,78.20
2019-05-02T21:09:24.236Z,78.04
2019-05-02T21:12:02.047Z,78.39
2019-05-02T21:14:34.129Z,78.93
2019-05-02T21:17:06.238Z,78.97
2019-05-02T21:19:38.142Z,79.31
2019-05-02T21:22:24.175Z,79.17
2019-05-02T21:24:55.114Z,79.88
2019-05-02T21:27:25.972Z,79.72
2019-05-02T21:30:06.645Z,79.66
2019-05-02T21:32:40.379Z,80.04
2019-05-02T21:35:14.871Z,79.79
2019-05-02T21:37:55.911Z,80.08
2019-05-02T21:40:26.585Z,80.14
2019-05-02T21:43:02.458Z,80.55
2019-05-02T21:45:36.646Z,80.43
2019-05-02T21:48:07.275Z,80.28
2019-05-02T21:50:52.436Z,80.43
2019-05-02T21:53:55.001Z,80.33
2019-05-02T21:56:26.638Z,80.27
2019-05-02T21:59:07.366Z,80.25
2019-05-02T22:01:47.226Z,80.53
2019-05-02T22:04:18.282Z,81.02
2019-05-02T22:06:52.244Z,81.04
2019-05-02T22:09:24.503Z,80.83
2019-05-02T22:11:55.292Z,80.74
2019-05-02T22:14:27.150Z,81.00
2019-05-02T22:16:58.773Z,81.21
2019-05-02T22:19:29.509Z,81.30
2019-05-02T22:22:02.332Z,81.35
2019-05-02T22:24:33.110Z,81.62
2019-05-02T22:27:05.499Z,81.63
2019-05-02T22:29:43.011Z,81.41
2019-05-02T22:32:22.622Z,81.85
2019-05-02T22:35:01.862Z,82.27
2019-05-02T22:37:32.983Z,82.06
2019-05-02T22:40:07.492Z,82.12
2019-05-02T22:42:47.690Z,81.95
2019-05-02T22:45:24.328Z,81.94
2019-05-02T22:48:02.629Z,82.04
2019-05-02T22:50:38.499Z,82.26
2019-05-02T22:53:12.023Z,82.49
2019-05-02T22:55:42.591Z,82.39
2019-05-02T22:58:21.785Z,82.55
2019-05-02T23:00:52.526Z,82.96
2019-05-02T23:03:24.212Z,83.03
2019-05-02T23:05:54.841Z,83.25
2019-05-02T23:08:26.734Z,83.02
2019-05-02T23:11:05.533Z,83.11
2019-05-02T23:13:56.834Z,82.96
2019-05-02T23:16:27.705Z,82.72
2019-05-02T23:19:02.790Z,83.06
2019-05-02T23:21:42.375Z,83.13
2019-05-02T23:24:36.384Z,83.66
2019-05-02T23:27:17.237Z,83.71
2019-05-02T23:29:51.954Z,83.67
2019-05-02T23:32:23.950Z,83.88
2019-05-02T23:34:54.675Z,83.80
2019-05-02T23:37:32.632Z,83.89
2019-05-02T23:40:19.326Z,83.91
2019-05-02T23:42:52.430Z,84.02
2019-05-02T23:45:27.220Z,84.08
2019-05-02T23:48:05.119Z,84.33
2019-05-02T23:50:36.903Z,84.66
2019-05-02T23:53:07.519Z,84.53
2019-05-02T23:55:43.409Z,84.75
2019-05-02T23:58:14.082Z,84.67
